createdAt,value
2022-08-03T00:02:20.370Z,7.30
2022-08-03T00:04:48.764Z,5.10
2022-08-03T00:07:17.494Z,5.37
2022-08-03T00:09:46.100Z,5.33
2022-08-03T00:12:14.890Z,5.63
2022-08-03T00:14:43.484Z,5.70
2022-08-03T00:17:12.624Z,5.37
2022-08-03T00:19:41.227Z,5.53
2022-08-03T00:22:09.683Z,6.90
2022-08-03T00:24:37.858Z,6.37
2022-08-03T00:27:06.186Z,6.47
2022-08-03T00:29:34.594Z,5.90
2022-08-03T00:32:24.776Z,6.10
2022-08-03T00:34:57.528Z,6.20
2022-08-03T00:37:41.300Z,9.60
2022-08-03T00:40:13.563Z,7.07
2022-08-03T00:43:09.084Z,10.23
2022-08-03T00:45:40.970Z,5.97
2022-08-03T00:48:19.759Z,7.47
2022-08-03T00:51:00.391Z,8.47
2022-08-03T00:53:29.768Z,6.13
2022-08-03T00:55:58.428Z,6.43
2022-08-03T00:58:26.928Z,5.70
2022-08-03T01:00:55.530Z,6.33
2022-08-03T01:03:24.310Z,5.47
2022-08-03T01:06:13.117Z,5.90
2022-08-03T01:09:04.907Z,7.40
2022-08-03T01:12:24.080Z,8.03
2022-08-03T01:15:06.017Z,6.73
2022-08-03T01:17:51.360Z,7.00
2022-08-03T01:20:22.290Z,6.03
2022-08-03T01:23:09.179Z,7.00
2022-08-03T01:26:06.250Z,8.07
2022-08-03T01:28:35.174Z,6.17
2022-08-03T01:31:09.283Z,7.30
2022-08-03T01:33:44.483Z,7.50
2022-08-03T01:36:28.184Z,6.17
2022-08-03T01:39:01.791Z,5.80
2022-08-03T01:41:36.556Z,6.43
2022-08-03T01:44:29.139Z,7.33
2022-08-03T01:47:01.390Z,5.87
2022-08-03T01:49:32.263Z,6.20
2022-08-03T01:52:04.963Z,5.30
2022-08-03T01:54:43.362Z,6.67
2022-08-03T01:57:12.702Z,6.03
2022-08-03T01:59:43.330Z,6.50
2022-08-03T02:02:15.941Z,7.53
2022-08-03T02:05:03.621Z,5.00
2022-08-03T02:07:32.683Z,6.53
2022-08-03T02:10:02.757Z,6.43
2022-08-03T02:12:34.199Z,6.87
2022-08-03T02:15:04.790Z,5.10
2022-08-03T02:17:39.044Z,6.73
2022-08-03T02:20:10.882Z,7.67
2022-08-03T02:22:42.495Z,6.40
2022-08-03T02:25:16.005Z,5.67
2022-08-03T02:27:59.857Z,6.50
2022-08-03T02:30:38.644Z,7.47
2022-08-03T02:33:28.207Z,9.17
2022-08-03T02:35:57.736Z,7.97
2022-08-03T02:38:40.485Z,5.40
2022-08-03T02:41:18.832Z,7.00
2022-08-03T02:44:06.322Z,7.23
2022-08-03T02:46:40.031Z,6.53
2022-08-03T02:49:40.478Z,6.67
2022-08-03T02:51:58.797Z,6.57
2022-08-03T02:54:28.833Z,7.63
2022-08-03T02:56:59.716Z,10.03
2022-08-03T02:59:28.380Z,6.80
2022-08-03T03:01:57.053Z,7.93
2022-08-03T03:04:28.459Z,6.00
2022-08-03T03:07:04.393Z,5.97
2022-08-03T03:09:40.045Z,7.53
2022-08-03T03:12:11.732Z,6.93
2022-08-03T03:14:40.316Z,6.33
2022-08-03T03:17:10.887Z,6.43
2022-08-03T03:19:41.605Z,6.97
2022-08-03T03:22:10.444Z,6.53
2022-08-03T03:24:41.137Z,6.93
2022-08-03T03:27:09.998Z,8.57
2022-08-03T03:29:45.323Z,6.23
2022-08-03T03:32:14.023Z,9.37
2022-08-03T03:34:44.323Z,5.60
2022-08-03T03:37:13.091Z,7.63
2022-08-03T03:39:41.631Z,5.73
2022-08-03T03:42:10.136Z,6.10
2022-08-03T03:44:38.525Z,7.33
2022-08-03T03:47:07.074Z,6.43
2022-08-03T03:49:35.876Z,5.67
2022-08-03T03:52:04.345Z,6.23
2022-08-03T03:54:46.332Z,9.40
2022-08-03T03:57:14.765Z,5.17
2022-08-03T03:59:43.935Z,7.77
2022-08-03T04:02:13.837Z,7.77
2022-08-03T04:04:59.906Z,8.53
2022-08-03T04:07:46.802Z,5.90
2022-08-03T04:10:38.658Z,6.33
2022-08-03T04:13:11.128Z,9.17
2022-08-03T04:15:43.533Z,5.73
2022-08-03T04:18:15.105Z,6.60
2022-08-03T04:20:48.788Z,8.03
2022-08-03T04:23:22.434Z,5.23
2022-08-03T04:25:52.999Z,7.63
2022-08-03T04:28:31.185Z,6.70
2022-08-03T04:31:01.505Z,7.07
2022-08-03T04:33:33.564Z,6.97
2022-08-03T04:36:07.711Z,5.57
2022-08-03T04:38:43.974Z,7.40
2022-08-03T04:41:12.779Z,6.27
2022-08-03T04:43:41.858Z,6.20
2022-08-03T04:46:10.471Z,9.13
2022-08-03T04:48:42.304Z,5.47
2022-08-03T04:51:13.071Z,5.60
2022-08-03T04:53:41.666Z,7.67
2022-08-03T04:56:10.334Z,5.73
2022-08-03T04:58:38.792Z,7.53
2022-08-03T05:01:07.460Z,10.37
2022-08-03T05:03:35.815Z,5.97
2022-08-03T05:06:09.713Z,6.07
2022-08-03T05:08:46.411Z,8.70
2022-08-03T05:11:17.775Z,5.60
2022-08-03T05:13:49.556Z,7.33
2022-08-03T05:16:18.031Z,6.13
2022-08-03T05:18:47.080Z,7.57
2022-08-03T05:21:16.821Z,8.97
2022-08-03T05:23:45.924Z,6.50
2022-08-03T05:26:14.397Z,8.57
2022-08-03T05:28:51.385Z,8.17
2022-08-03T05:31:20.266Z,5.60
2022-08-03T05:33:49.404Z,4.90
2022-08-03T05:36:17.978Z,5.73
2022-08-03T05:38:46.520Z,8.47
2022-08-03T05:41:21.490Z,8.23
2022-08-03T05:43:56.601Z,7.77
2022-08-03T05:46:25.338Z,5.10
2022-08-03T05:48:54.227Z,6.03
2022-08-03T05:51:22.728Z,5.17
2022-08-03T05:53:51.159Z,6.67
2022-08-03T05:56:22.627Z,4.40
2022-08-03T05:58:52.181Z,5.17
2022-08-03T06:01:22.949Z,4.43
2022-08-03T06:03:52.102Z,5.43
2022-08-03T06:06:20.656Z,4.80
2022-08-03T06:08:49.115Z,5.77
2022-08-03T06:11:17.758Z,7.13
2022-08-03T06:13:46.290Z,7.03
2022-08-03T06:16:14.648Z,5.47
2022-08-03T06:18:44.157Z,5.43
2022-08-03T06:21:15.351Z,5.87
2022-08-03T06:23:52.817Z,5.73
2022-08-03T06:26:25.408Z,6.17
2022-08-03T06:28:54.930Z,6.00
2022-08-03T06:31:33.107Z,6.37
2022-08-03T06:34:32.656Z,6.97
2022-08-03T06:36:58.627Z,4.53
2022-08-03T06:39:30.646Z,6.60
2022-08-03T06:41:59.214Z,4.10
2022-08-03T06:44:27.727Z,3.50
2022-08-03T06:46:56.473Z,4.43
2022-08-03T06:49:24.999Z,5.50
2022-08-03T06:52:03.277Z,3.80
2022-08-03T06:54:34.896Z,7.00
2022-08-03T06:57:03.642Z,7.10
2022-08-03T07:00:10.872Z,4.17
2022-08-03T07:02:20.616Z,5.53
2022-08-03T07:04:52.202Z,3.93
2022-08-03T07:07:20.826Z,3.00
2022-08-03T07:09:57.100Z,5.53
2022-08-03T07:12:28.625Z,3.73
2022-08-03T07:15:01.181Z,4.33
2022-08-03T07:17:32.189Z,2.93
2022-08-03T07:20:01.571Z,4.00
2022-08-03T07:22:30.127Z,5.30
2022-08-03T07:24:59.101Z,2.63
2022-08-03T07:27:30.357Z,2.73
2022-08-03T07:29:59.978Z,3.20
2022-08-03T07:32:31.613Z,2.90
2022-08-03T07:35:01.419Z,3.60
2022-08-03T07:37:31.129Z,3.47
2022-08-03T07:40:03.335Z,2.73
2022-08-03T07:42:31.896Z,3.20
2022-08-03T07:45:00.611Z,5.97
2022-08-03T07:47:35.465Z,2.42
2022-08-03T07:50:05.426Z,2.75
2022-08-03T07:52:53.111Z,2.17
2022-08-03T07:55:24.273Z,1.88
2022-08-03T07:58:17.237Z,4.60
2022-08-03T08:00:47.625Z,1.95
2022-08-03T08:03:15.713Z,2.75
2022-08-03T08:05:43.943Z,1.95
2022-08-03T08:08:12.058Z,2.88
2022-08-03T08:10:40.524Z,3.75
2022-08-03T08:13:08.510Z,3.20
2022-08-03T08:15:36.479Z,4.47
2022-08-03T08:18:11.295Z,2.45
2022-08-03T08:20:39.856Z,3.58
2022-08-03T08:23:37.673Z,1.90
2022-08-03T08:25:58.955Z,2.83
2022-08-03T08:28:32.650Z,3.45
2022-08-03T08:31:01.621Z,3.83
2022-08-03T08:33:48.010Z,3.22
2022-08-03T08:36:18.742Z,2.90
2022-08-03T08:38:47.079Z,3.92
2022-08-03T08:41:16.504Z,3.72
2022-08-03T08:43:44.765Z,3.00
2022-08-03T08:46:23.339Z,4.75
2022-08-03T08:48:54.164Z,2.08
2022-08-03T08:51:23.732Z,3.03
2022-08-03T08:54:13.761Z,3.50
2022-08-03T08:56:42.293Z,2.63
2022-08-03T08:59:10.738Z,5.40
2022-08-03T09:01:39.178Z,4.45
2022-08-03T09:04:11.353Z,2.95
2022-08-03T09:06:39.495Z,2.45
2022-08-03T09:09:08.488Z,3.60
2022-08-03T09:11:53.401Z,2.60
2022-08-03T09:14:36.906Z,3.90
2022-08-03T09:17:17.426Z,1.95
2022-08-03T09:20:08.905Z,2.10
2022-08-03T09:22:37.503Z,2.83
2022-08-03T09:25:23.934Z,2.72
2022-08-03T09:27:53.420Z,3.03
2022-08-03T09:30:34.674Z,3.05
2022-08-03T09:33:16.429Z,3.72
2022-08-03T09:35:55.358Z,2.90
2022-08-03T09:38:27.601Z,2.85
2022-08-03T09:41:00.661Z,2.67
2022-08-03T09:43:30.176Z,2.20
2022-08-03T09:46:07.548Z,2.28
2022-08-03T09:48:37.541Z,4.15
2022-08-03T09:51:32.329Z,2.33
2022-08-03T09:54:00.281Z,5.63
2022-08-03T09:56:48.576Z,2.75
2022-08-03T09:59:29.886Z,1.90
2022-08-03T10:01:59.782Z,1.65
2022-08-03T10:04:28.476Z,1.88
2022-08-03T10:07:11.768Z,1.98
2022-08-03T10:09:40.296Z,2.40
2022-08-03T10:12:14.124Z,2.53
2022-08-03T10:14:45.404Z,6.43
2022-08-03T10:17:13.966Z,4.95
2022-08-03T10:19:42.828Z,2.20
2022-08-03T10:22:16.530Z,1.85
2022-08-03T10:25:10.697Z,4.53
2022-08-03T10:27:46.417Z,2.67
2022-08-03T10:30:15.461Z,2.95
2022-08-03T10:32:49.819Z,2.20
2022-08-03T10:35:21.672Z,2.90
2022-08-03T10:37:59.564Z,1.83
2022-08-03T10:40:52.620Z,2.60
2022-08-03T10:43:35.687Z,2.00
2022-08-03T10:46:07.061Z,2.42
2022-08-03T10:48:36.945Z,3.58
2022-08-03T10:51:06.863Z,2.70
2022-08-03T10:53:44.056Z,2.45
2022-08-03T10:56:51.730Z,2.42
2022-08-03T10:59:27.775Z,2.38
2022-08-03T11:02:00.759Z,2.30
2022-08-03T11:04:30.977Z,2.65
2022-08-03T11:07:17.614Z,2.08
2022-08-03T11:09:51.425Z,2.15
2022-08-03T11:12:38.273Z,2.00
2022-08-03T11:15:09.677Z,3.83
2022-08-03T11:17:46.746Z,2.92
2022-08-03T11:21:02.529Z,2.03
2022-08-03T11:24:02.759Z,4.45
2022-08-03T11:26:35.120Z,2.13
2022-08-03T11:29:30.429Z,3.70
2022-08-03T11:31:59.067Z,2.47
2022-08-03T11:34:27.801Z,3.85
2022-08-03T11:37:31.401Z,1.75
2022-08-03T11:40:02.889Z,2.50
2022-08-03T11:42:36.968Z,2.50
2022-08-03T11:45:09.283Z,2.22
2022-08-03T11:47:50.942Z,1.83
2022-08-03T11:50:20.269Z,2.17
2022-08-03T11:52:49.994Z,3.65
2022-08-03T11:55:21.971Z,2.22
2022-08-03T11:59:10.936Z,1.70
2022-08-03T12:00:38.791Z,1.80
2022-08-03T12:03:11.861Z,2.58
2022-08-03T12:05:54.941Z,3.25
2022-08-03T12:08:28.997Z,2.78
2022-08-03T12:11:00.073Z,2.65
2022-08-03T12:14:27.419Z,2.33
2022-08-03T12:16:29.686Z,2.70
2022-08-03T12:19:08.297Z,2.35
2022-08-03T12:21:36.720Z,2.28
2022-08-03T12:24:06.502Z,3.63
2022-08-03T12:26:59.023Z,3.90
2022-08-03T12:29:28.608Z,1.52
2022-08-03T12:31:57.178Z,1.67
2022-08-03T12:34:25.202Z,1.98
2022-08-03T12:37:00.210Z,2.10
2022-08-03T12:39:31.052Z,1.85
2022-08-03T12:41:59.579Z,2.90
2022-08-03T12:44:37.796Z,1.80
2022-08-03T12:47:06.909Z,2.75
2022-08-03T12:49:53.027Z,2.40
2022-08-03T12:52:23.655Z,3.83
2022-08-03T12:54:59.871Z,3.13
2022-08-03T12:57:44.368Z,3.95
2022-08-03T13:00:28.673Z,4.00
2022-08-03T13:03:38.819Z,3.40
2022-08-03T13:06:04.082Z,2.92
2022-08-03T13:08:32.537Z,2.70
2022-08-03T13:11:00.523Z,14.65
2022-08-03T13:13:47.657Z,2.03
2022-08-03T13:16:19.378Z,4.15
2022-08-03T13:18:48.201Z,3.45
2022-08-03T13:21:17.663Z,3.63
2022-08-03T13:23:46.436Z,4.70
2022-08-03T13:26:14.986Z,4.90
2022-08-03T13:28:43.055Z,3.55
2022-08-03T13:31:11.320Z,3.38
2022-08-03T13:33:40.808Z,1.67
2022-08-03T13:36:09.293Z,2.28
2022-08-03T13:38:37.320Z,5.20
2022-08-03T13:41:06.301Z,5.70
2022-08-03T13:43:34.344Z,4.28
2022-08-03T13:46:02.351Z,4.25
2022-08-03T13:48:35.946Z,2.85
2022-08-03T13:51:11.727Z,2.58
2022-08-03T13:53:52.669Z,5.10
2022-08-03T13:56:20.837Z,3.45
2022-08-03T13:58:49.112Z,3.17
2022-08-03T14:01:22.732Z,2.72
2022-08-03T14:04:02.948Z,2.10
2022-08-03T14:06:31.568Z,2.40
2022-08-03T14:09:00.721Z,2.47
2022-08-03T14:12:07.320Z,4.00
2022-08-03T14:14:18.004Z,1.92
2022-08-03T14:16:46.405Z,3.97
2022-08-03T14:19:17.955Z,1.90
2022-08-03T14:21:53.025Z,2.33
2022-08-03T14:24:35.129Z,2.83
2022-08-03T14:27:09.046Z,3.25
2022-08-03T14:29:37.982Z,2.05
2022-08-03T14:32:10.922Z,2.20
2022-08-03T14:34:41.035Z,3.53
2022-08-03T14:37:09.576Z,3.50
2022-08-03T14:42:27.048Z,2.60
2022-08-03T14:44:58.881Z,1.92
2022-08-03T14:47:30.747Z,2.08
2022-08-03T14:50:30.779Z,1.80
2022-08-03T14:52:47.618Z,3.33
2022-08-03T14:55:15.649Z,3.53
2022-08-03T14:57:43.636Z,2.17
2022-08-03T15:00:12.535Z,2.10
2022-08-03T15:02:40.590Z,4.10
2022-08-03T15:05:10.806Z,3.42
2022-08-03T15:07:38.897Z,2.67
2022-08-03T15:10:07.690Z,3.45
2022-08-03T15:12:36.152Z,2.40
2022-08-03T15:15:04.383Z,1.98
2022-08-03T15:17:32.888Z,2.38
2022-08-03T15:20:26.522Z,2.47
2022-08-03T15:22:49.096Z,3.42
2022-08-03T15:26:27.839Z,2.10
2022-08-03T15:28:05.796Z,3.63
2022-08-03T15:30:37.015Z,2.15
2022-08-03T15:33:05.893Z,2.97
2022-08-03T15:35:34.398Z,2.20
2022-08-03T15:38:07.296Z,3.88
2022-08-03T15:40:37.657Z,2.85
2022-08-03T15:43:05.716Z,2.20
2022-08-03T15:45:36.223Z,2.00
2022-08-03T15:48:07.952Z,2.80
2022-08-03T15:50:35.994Z,4.07
2022-08-03T15:53:04.704Z,2.47
2022-08-03T15:55:33.229Z,1.90
2022-08-03T15:59:04.662Z,1.70
2022-08-03T16:00:49.890Z,3.20
2022-08-03T16:03:18.125Z,3.28
2022-08-03T16:05:49.253Z,2.83
2022-08-03T16:08:17.685Z,2.42
2022-08-03T16:10:46.767Z,1.60
2022-08-03T16:13:16.919Z,2.88
2022-08-03T16:15:45.304Z,1.65
2022-08-03T16:18:13.658Z,4.20
2022-08-03T16:20:42.277Z,2.35
2022-08-03T16:23:12.716Z,2.92
2022-08-03T16:25:44.428Z,2.25
2022-08-03T16:28:17.977Z,3.50
2022-08-03T16:30:47.861Z,3.40
2022-08-03T16:33:17.933Z,4.05
2022-08-03T16:35:49.681Z,4.15
2022-08-03T16:38:19.277Z,2.90
2022-08-03T16:40:52.293Z,3.92
2022-08-03T16:43:23.335Z,1.80
2022-08-03T16:45:52.011Z,2.28
2022-08-03T16:48:20.620Z,2.45
2022-08-03T16:50:49.171Z,2.38
2022-08-03T16:53:33.093Z,4.22
2022-08-03T16:56:10.133Z,3.20
2022-08-03T16:58:42.117Z,2.95
2022-08-03T17:01:24.182Z,8.60
2022-08-03T17:04:04.637Z,3.28
2022-08-03T17:06:45.030Z,5.47
2022-08-03T17:09:18.969Z,2.78
2022-08-03T17:11:52.020Z,5.10
2022-08-03T17:14:23.889Z,6.68
2022-08-03T17:17:01.069Z,3.45
2022-08-03T17:19:35.099Z,3.63
2022-08-03T17:22:15.957Z,5.38
2022-08-03T17:24:55.039Z,3.75
2022-08-03T17:28:49.454Z,2.05
2022-08-03T17:30:25.325Z,4.40
2022-08-03T17:32:57.417Z,2.38
2022-08-03T17:35:35.516Z,2.00
2022-08-03T17:38:10.514Z,3.88
2022-08-03T17:40:47.894Z,2.88
2022-08-03T17:44:13.380Z,2.58
2022-08-03T17:46:10.916Z,2.78
2022-08-03T17:48:41.551Z,1.80
2022-08-03T17:51:24.876Z,2.92
2022-08-03T17:54:27.121Z,2.70
2022-08-03T17:57:27.134Z,2.80
2022-08-03T17:59:59.094Z,5.03
2022-08-03T18:03:18.445Z,3.85
2022-08-03T18:06:08.955Z,3.95
2022-08-03T18:08:48.294Z,3.60
2022-08-03T18:11:23.741Z,3.67
2022-08-03T18:14:17.819Z,2.45
2022-08-03T18:16:53.912Z,2.95
2022-08-03T18:20:01.918Z,3.35
2022-08-03T18:22:11.324Z,4.43
2022-08-03T18:24:40.947Z,3.47
2022-08-03T18:27:10.996Z,4.50
2022-08-03T18:29:41.389Z,4.82
2022-08-03T18:32:13.721Z,3.53
2022-08-03T18:34:54.123Z,10.45
2022-08-03T18:37:26.221Z,6.03
2022-08-03T18:39:58.514Z,4.53
2022-08-03T18:42:28.550Z,7.40
2022-08-03T18:45:14.967Z,4.68
2022-08-03T18:47:56.100Z,3.45
2022-08-03T18:50:55.080Z,3.30
2022-08-03T18:54:04.089Z,3.13
2022-08-03T18:56:50.129Z,5.33
2022-08-03T18:59:52.532Z,5.30
2022-08-03T19:02:48.869Z,5.10
2022-08-03T19:05:24.740Z,5.37
2022-08-03T19:08:28.789Z,6.40
2022-08-03T19:11:02.794Z,5.40
2022-08-03T19:13:50.159Z,5.10
2022-08-03T19:16:35.215Z,5.00
2022-08-03T19:19:14.427Z,5.23
2022-08-03T19:21:43.345Z,12.53
2022-08-03T19:24:11.757Z,6.93
2022-08-03T19:26:41.640Z,5.83
2022-08-03T19:29:15.144Z,6.93
2022-08-03T19:31:59.605Z,5.60
2022-08-03T19:34:32.911Z,5.33
2022-08-03T19:37:01.642Z,5.87
2022-08-03T19:39:31.732Z,5.63
2022-08-03T19:45:11.450Z,6.37
2022-08-03T19:48:09.996Z,5.60
2022-08-03T19:50:44.425Z,4.20
2022-08-03T19:53:16.886Z,5.10
2022-08-03T19:55:49.029Z,3.67
2022-08-03T19:58:28.523Z,4.53
2022-08-03T20:00:57.599Z,4.70
2022-08-03T20:03:43.350Z,3.43
2022-08-03T20:06:16.887Z,6.23
2022-08-03T20:08:45.672Z,3.40
2022-08-03T20:11:20.095Z,4.53
2022-08-03T20:13:57.339Z,3.67
2022-08-03T20:16:26.143Z,4.27
2022-08-03T20:18:54.532Z,6.43
2022-08-03T20:21:28.531Z,4.70
2022-08-03T20:24:23.875Z,9.33
2022-08-03T20:26:57.836Z,4.63
2022-08-03T20:30:06.600Z,4.40
2022-08-03T20:32:35.829Z,5.63
2022-08-03T20:35:04.402Z,7.20
2022-08-03T20:37:38.712Z,7.27
2022-08-03T20:40:10.641Z,6.13
2022-08-03T20:42:39.315Z,5.63
2022-08-03T20:45:13.987Z,5.57
2022-08-03T20:47:57.228Z,7.53
2022-08-03T20:50:26.278Z,4.53
2022-08-03T20:52:55.938Z,4.97
2022-08-03T20:55:47.905Z,4.67
2022-08-03T20:58:13.295Z,6.70
2022-08-03T21:00:43.672Z,7.07
2022-08-03T21:03:11.827Z,7.63
2022-08-03T21:05:51.194Z,6.80
2022-08-03T21:08:23.015Z,4.43
2022-08-03T21:10:54.337Z,5.97
2022-08-03T21:13:10.857Z,4.17
2022-08-03T21:13:41.088Z,5.60
2022-08-03T21:16:14.017Z,5.43
2022-08-03T21:19:04.404Z,7.57
2022-08-03T21:21:33.799Z,8.97
2022-08-03T21:24:03.539Z,7.40
2022-08-03T21:26:34.989Z,6.13
2022-08-03T21:29:03.480Z,6.17
2022-08-03T21:31:31.921Z,5.37
2022-08-03T21:34:04.432Z,7.33
2022-08-03T21:36:36.612Z,4.97
2022-08-03T21:39:09.180Z,4.23
2022-08-03T21:41:39.991Z,5.10
2022-08-03T21:44:11.056Z,7.23
2022-08-03T21:46:42.077Z,4.23
2022-08-03T21:49:51.782Z,6.80
2022-08-03T21:52:01.729Z,5.50
2022-08-03T21:54:39.066Z,4.50
2022-08-03T21:57:18.160Z,3.77
2022-08-03T21:59:58.754Z,5.13
2022-08-03T22:02:32.515Z,5.43
2022-08-03T22:05:05.179Z,5.20
2022-08-03T22:07:34.209Z,4.70
2022-08-03T22:10:06.604Z,5.57
2022-08-03T22:12:35.864Z,4.40
2022-08-03T22:15:07.944Z,4.87
2022-08-03T22:17:54.553Z,6.40
2022-08-03T22:20:25.636Z,4.97
2022-08-03T22:23:03.869Z,3.90
2022-08-03T22:25:36.549Z,5.00
2022-08-03T22:28:10.319Z,6.70
2022-08-03T22:30:39.979Z,6.97
2022-08-03T22:33:11.964Z,11.30
2022-08-03T22:35:48.306Z,13.80
2022-08-03T22:38:17.991Z,14.17
2022-08-03T22:40:49.855Z,19.50
2022-08-03T22:43:18.624Z,19.17
2022-08-03T22:46:10.566Z,28.47
2022-08-03T22:48:41.249Z,19.47
2022-08-03T22:51:10.994Z,12.87
2022-08-03T22:53:40.979Z,11.63
2022-08-03T22:56:09.874Z,10.90
2022-08-03T22:58:38.441Z,14.97
2022-08-03T23:01:12.607Z,11.83
2022-08-03T23:03:58.731Z,8.33
2022-08-03T23:06:38.092Z,8.53
2022-08-03T23:09:10.974Z,9.90
2022-08-03T23:11:45.331Z,11.80
2022-08-03T23:14:17.549Z,5.80
2022-08-03T23:16:47.372Z,4.13
2022-08-03T23:19:17.031Z,8.57
2022-08-03T23:22:03.134Z,4.80
2022-08-03T23:24:36.955Z,6.53
2022-08-03T23:27:07.632Z,4.43
2022-08-03T23:29:38.064Z,6.87
2022-08-03T23:32:07.574Z,3.90
2022-08-03T23:34:53.743Z,6.67
2022-08-03T23:37:22.545Z,5.10
2022-08-03T23:39:51.208Z,5.20
2022-08-03T23:42:21.594Z,6.30
2022-08-03T23:44:56.669Z,5.10
2022-08-03T23:47:47.383Z,5.37
2022-08-03T23:50:16.446Z,4.13
2022-08-03T23:53:13.797Z,4.87
2022-08-03T23:56:03.742Z,9.63
2022-08-03T23:59:03.966Z,7.20
